Fort Jefferson National Mon, Florida
Current Conditions -  °F | °C
As of 9:53 AM on Thursday 30 Oct 2014 (Local Time) from KNQX Reporting Station
Scattered Clouds Scattered Clouds  
Wind Chill: 81°   Ceiling: Unl
Heat Index: 84°   Visibility: 10mi
Dew Point: 69°   Wind: 6mph
Humidity: 67%   Direction: 60°ENE
Pressure: 29.99"   Gusts: NA
Location:  24.5796°N, 81.6849°W
Report Text: KNQX 301353Z 06005KT 10SM FEW022 SCT080 27/21 A2999 RMK AO2 SLP152 T02720206 $
Loading
Personal Weather Stations






























Interactive Weather Map
Tropical Storm Tracking
New forecast layout! Learn more

10-Day Weather Forecast

Advertisements
Track Severe Weather on mobile